PWSweather.com
Personal Weather Stations
Station Observations

SkegnessGB

Lat: 53.147585, Lon: 0.345774

Elevation: 18

Station Type: Fine Offset WH3080

http://www.skegnessweather.info/

High Low Average
Temperature 46.4°F8.0°C 36.1°F2.3°C 40.2°F4.6°C
Dew Point 39.3°F4.1°C 32.6°F0.3°C 35.8°F2.1°C
Winds 7.5 mph 12.1 kmh 1.4 mph 2.3 kmh 4.0 mph SW6.4 kmh SW
Wind Gusts 12.5 mph20.1 kmh 2.5 mph4.0 kmh 5.0 mph8.0 kmh
Humidity 88% 72% 84%
Pressure 30.34 in1027.4 mb 30.12 in1020.0 mb -
Precipitation 0.00 in0.0 mm - -
Hour Temp Dew Point Humidity Winds Wind Gusts Pressure Precip Precip Rate Daily Precip Total
12:00 AM 38.8°F3.8°C 35.3°F1.8°C 87% 4.1 mph S6.6 kmh S 4.9 mph7.9 kmh 30.34 in1027.4 mb 0.00 in0.0 mm 0.00 in0.0 mm 0.00 in0.0 mm
12:10 AM 38.8°F3.8°C 35.3°F1.8°C 87% 3.0 mph SW4.8 kmh SW 4.2 mph6.8 kmh 30.34 in1027.4 mb 0.00 in0.0 mm 0.00 in0.0 mm 0.00 in0.0 mm
12:20 AM 38.8°F3.8°C 35.3°F1.8°C 87% 3.8 mph SW6.1 kmh SW 4.9 mph7.9 kmh 30.34 in1027.4 mb 0.00 in0.0 mm 0.00 in0.0 mm 0.00 in0.0 mm
12:30 AM 39.0°F3.9°C 35.5°F1.9°C 87% 3.0 mph SW4.8 kmh SW 3.4 mph5.5 kmh 30.33 in1027.1 mb 0.00 in0.0 mm 0.00 in0.0 mm 0.00 in0.0 mm
12:40 AM 39.0°F3.9°C 35.5°F1.9°C 87% 2.3 mph WSW3.7 kmh WSW 2.5 mph4.0 kmh 30.32 in1026.8 mb 0.00 in0.0 mm 0.00 in0.0 mm 0.00 in0.0 mm
12:50 AM 39.2°F4.0°C 35.7°F2.1°C 87% 3.1 mph WSW5.0 kmh WSW 4.2 mph6.8 kmh 30.33 in1027.1 mb 0.00 in0.0 mm 0.00 in0.0 mm 0.00 in0.0 mm
01:00 AM 39.2°F4.0°C 35.7°F2.1°C 87% 3.7 mph SSW6.0 kmh SSW 4.2 mph6.8 kmh 30.32 in1026.8 mb 0.00 in0.0 mm 0.00 in0.0 mm 0.00 in0.0 mm
01:10 AM 39.0°F3.9°C 35.5°F1.9°C 87% 4.1 mph SSW6.6 kmh SSW 4.2 mph6.8 kmh 30.32 in1026.8 mb 0.00 in0.0 mm 0.00 in0.0 mm 0.00 in0.0 mm
01:20 AM 38.8°F3.8°C 35.3°F1.8°C 87% 2.3 mph WSW3.7 kmh WSW 3.4 mph5.5 kmh 30.32 in1026.8 mb 0.00 in0.0 mm 0.00 in0.0 mm 0.00 in0.0 mm
01:30 AM 38.7°F3.7°C 35.1°F1.7°C 87% 1.6 mph SSW2.6 kmh SSW 3.4 mph5.5 kmh 30.32 in1026.8 mb 0.00 in0.0 mm 0.00 in0.0 mm 0.00 in0.0 mm
01:40 AM 38.7°F3.7°C 35.1°F1.7°C 87% 2.4 mph SW3.9 kmh SW 3.4 mph5.5 kmh 30.32 in1026.8 mb 0.00 in0.0 mm 0.00 in0.0 mm 0.00 in0.0 mm
01:50 AM 38.7°F3.7°C 35.1°F1.7°C 87% 2.6 mph SW4.2 kmh SW 4.2 mph6.8 kmh 30.32 in1026.8 mb 0.00 in0.0 mm 0.00 in0.0 mm 0.00 in0.0 mm
02:00 AM 38.8°F3.8°C 35.3°F1.8°C 87% 1.7 mph SW2.7 kmh SW 3.4 mph5.5 kmh 30.31 in1026.4 mb 0.00 in0.0 mm 0.00 in0.0 mm 0.00 in0.0 mm
02:10 AM 38.8°F3.8°C 35.3°F1.8°C 87% 3.4 mph SSW5.5 kmh SSW 4.2 mph6.8 kmh 30.31 in1026.4 mb 0.00 in0.0 mm 0.00 in0.0 mm 0.00 in0.0 mm
02:20 AM 39.0°F3.9°C 35.5°F1.9°C 87% 3.6 mph SSW5.8 kmh SSW 4.2 mph6.8 kmh 30.31 in1026.4 mb 0.00 in0.0 mm 0.00 in0.0 mm 0.00 in0.0 mm
02:30 AM 39.0°F3.9°C 35.5°F1.9°C 87% 3.7 mph SSW6.0 kmh SSW 4.2 mph6.8 kmh 30.31 in1026.4 mb 0.00 in0.0 mm 0.00 in0.0 mm 0.00 in0.0 mm
02:40 AM 38.8°F3.8°C 35.3°F1.8°C 87% 2.1 mph WSW3.4 kmh WSW 2.5 mph4.0 kmh 30.31 in1026.4 mb 0.00 in0.0 mm 0.00 in0.0 mm 0.00 in0.0 mm
02:50 AM 38.8°F3.8°C 35.3°F1.8°C 87% 4.0 mph SW6.4 kmh SW 4.9 mph7.9 kmh 30.30 in1026.1 mb 0.00 in0.0 mm 0.00 in0.0 mm 0.00 in0.0 mm
03:00 AM 38.7°F3.7°C 35.1°F1.7°C 87% 2.8 mph S4.5 kmh S 3.4 mph5.5 kmh 30.30 in1026.1 mb 0.00 in0.0 mm 0.00 in0.0 mm 0.00 in0.0 mm
03:10 AM 38.3°F3.5°C 34.8°F1.6°C 87% 2.8 mph W4.5 kmh W 3.4 mph5.5 kmh 30.29 in1025.7 mb 0.00 in0.0 mm 0.00 in0.0 mm 0.00 in0.0 mm
03:20 AM 38.3°F3.5°C 34.8°F1.6°C 87% 1.9 mph SW3.1 kmh SW 4.2 mph6.8 kmh 30.29 in1025.7 mb 0.00 in0.0 mm 0.00 in0.0 mm 0.00 in0.0 mm
03:30 AM 38.1°F3.4°C 34.6°F1.4°C 87% 2.3 mph WSW3.7 kmh WSW 4.2 mph6.8 kmh 30.29 in1025.7 mb 0.00 in0.0 mm 0.00 in0.0 mm 0.00 in0.0 mm
03:40 AM 38.1°F3.4°C 34.6°F1.4°C 87% 3.6 mph SW5.8 kmh SW 4.2 mph6.8 kmh 30.29 in1025.7 mb 0.00 in0.0 mm 0.00 in0.0 mm 0.00 in0.0 mm
03:50 AM 38.1°F3.4°C 34.6°F1.4°C 87% 2.8 mph SW4.5 kmh SW 3.4 mph5.5 kmh 30.28 in1025.4 mb 0.00 in0.0 mm 0.00 in0.0 mm 0.00 in0.0 mm
04:00 AM 38.1°F3.4°C 34.6°F1.4°C 87% 2.7 mph SSW4.3 kmh SSW 3.4 mph5.5 kmh 30.29 in1025.7 mb 0.00 in0.0 mm 0.00 in0.0 mm 0.00 in0.0 mm
04:10 AM 38.1°F3.4°C 34.6°F1.4°C 87% 1.6 mph SW2.6 kmh SW 2.5 mph4.0 kmh 30.28 in1025.4 mb 0.00 in0.0 mm 0.00 in0.0 mm 0.00 in0.0 mm
04:20 AM 38.3°F3.5°C 34.8°F1.6°C 87% 3.2 mph S5.1 kmh S 4.2 mph6.8 kmh 30.28 in1025.4 mb 0.00 in0.0 mm 0.00 in0.0 mm 0.00 in0.0 mm
04:30 AM 38.3°F3.5°C 34.8°F1.6°C 87% 2.0 mph S3.2 kmh S 2.5 mph4.0 kmh 30.28 in1025.4 mb 0.00 in0.0 mm 0.00 in0.0 mm 0.00 in0.0 mm
04:40 AM 38.5°F3.6°C 34.9°F1.6°C 87% 1.5 mph SW2.4 kmh SW 3.4 mph5.5 kmh 30.28 in1025.4 mb 0.00 in0.0 mm 0.00 in0.0 mm 0.00 in0.0 mm
04:50 AM 38.7°F3.7°C 35.1°F1.7°C 87% 3.8 mph SSW6.1 kmh SSW 4.9 mph7.9 kmh 30.27 in1025.1 mb 0.00 in0.0 mm 0.00 in0.0 mm 0.00 in0.0 mm
05:00 AM 38.7°F3.7°C 35.1°F1.7°C 87% 3.0 mph SW4.8 kmh SW 4.2 mph6.8 kmh 30.27 in1025.1 mb 0.00 in0.0 mm 0.00 in0.0 mm 0.00 in0.0 mm
05:10 AM 38.5°F3.6°C 34.9°F1.6°C 87% 3.1 mph WSW5.0 kmh WSW 3.4 mph5.5 kmh 30.27 in1025.1 mb 0.00 in0.0 mm 0.00 in0.0 mm 0.00 in0.0 mm
05:20 AM 38.3°F3.5°C 34.8°F1.6°C 87% 3.2 mph SW5.1 kmh SW 4.2 mph6.8 kmh 30.27 in1025.1 mb 0.00 in0.0 mm 0.00 in0.0 mm 0.00 in0.0 mm
05:30 AM 38.1°F3.4°C 34.6°F1.4°C 87% 3.0 mph SW4.8 kmh SW 3.4 mph5.5 kmh 30.27 in1025.1 mb 0.00 in0.0 mm 0.00 in0.0 mm 0.00 in0.0 mm
05:40 AM 38.1°F3.4°C 34.6°F1.4°C 87% 2.9 mph SSW4.7 kmh SSW 3.4 mph5.5 kmh 30.27 in1025.1 mb 0.00 in0.0 mm 0.00 in0.0 mm 0.00 in0.0 mm
05:50 AM 38.1°F3.4°C 34.6°F1.4°C 87% 3.2 mph SW5.1 kmh SW 4.9 mph7.9 kmh 30.27 in1025.1 mb 0.00 in0.0 mm 0.00 in0.0 mm 0.00 in0.0 mm
06:00 AM 38.1°F3.4°C 34.6°F1.4°C 87% 2.8 mph SW4.5 kmh SW 3.4 mph5.5 kmh 30.27 in1025.1 mb 0.00 in0.0 mm 0.00 in0.0 mm 0.00 in0.0 mm
06:10 AM 38.3°F3.5°C 34.8°F1.6°C 87% 3.1 mph SSW5.0 kmh SSW 3.4 mph5.5 kmh 30.27 in1025.1 mb 0.00 in0.0 mm 0.00 in0.0 mm 0.00 in0.0 mm
06:20 AM 38.7°F3.7°C 35.1°F1.7°C 87% 3.5 mph WSW5.6 kmh WSW 4.2 mph6.8 kmh 30.27 in1025.1 mb 0.00 in0.0 mm 0.00 in0.0 mm 0.00 in0.0 mm
06:30 AM 38.8°F3.8°C 35.6°F2.0°C 88% 3.5 mph SSW5.6 kmh SSW 4.9 mph7.9 kmh 30.27 in1025.1 mb 0.00 in0.0 mm 0.00 in0.0 mm 0.00 in0.0 mm
06:40 AM 39.0°F3.9°C 35.8°F2.1°C 88% 3.3 mph SW5.3 kmh SW 4.2 mph6.8 kmh 30.27 in1025.1 mb 0.00 in0.0 mm 0.00 in0.0 mm 0.00 in0.0 mm
06:50 AM 39.2°F4.0°C 35.9°F2.2°C 88% 3.0 mph SW4.8 kmh SW 4.9 mph7.9 kmh 30.27 in1025.1 mb 0.00 in0.0 mm 0.00 in0.0 mm 0.00 in0.0 mm
07:00 AM 39.4°F4.1°C 36.1°F2.3°C 88% 3.0 mph SW4.8 kmh SW 3.4 mph5.5 kmh 30.27 in1025.1 mb 0.00 in0.0 mm 0.00 in0.0 mm 0.00 in0.0 mm
07:10 AM 39.4°F4.1°C 36.1°F2.3°C 88% 3.1 mph SE5.0 kmh SE 3.4 mph5.5 kmh 30.26 in1024.7 mb 0.00 in0.0 mm 0.00 in0.0 mm 0.00 in0.0 mm
07:20 AM 39.4°F4.1°C 36.1°F2.3°C 88% 3.5 mph SSW5.6 kmh SSW 4.2 mph6.8 kmh 30.27 in1025.1 mb 0.00 in0.0 mm 0.00 in0.0 mm 0.00 in0.0 mm
07:30 AM 39.6°F4.2°C 36.3°F2.4°C 88% 4.1 mph S6.6 kmh S 4.9 mph7.9 kmh 30.27 in1025.1 mb 0.00 in0.0 mm 0.00 in0.0 mm 0.00 in0.0 mm
07:40 AM 39.6°F4.2°C 36.3°F2.4°C 88% 2.2 mph S3.5 kmh S 4.2 mph6.8 kmh 30.27 in1025.1 mb 0.00 in0.0 mm 0.00 in0.0 mm 0.00 in0.0 mm
07:50 AM 39.7°F4.3°C 36.2°F2.3°C 87% 2.7 mph SW4.3 kmh SW 4.9 mph7.9 kmh 30.27 in1025.1 mb 0.00 in0.0 mm 0.00 in0.0 mm 0.00 in0.0 mm
08:00 AM 39.7°F4.3°C 36.2°F2.3°C 87% 2.0 mph SW3.2 kmh SW 2.5 mph4.0 kmh 30.27 in1025.1 mb 0.00 in0.0 mm 0.00 in0.0 mm 0.00 in0.0 mm
08:10 AM 39.7°F4.3°C 36.2°F2.3°C 87% 1.6 mph SW2.6 kmh SW 2.5 mph4.0 kmh 30.27 in1025.1 mb 0.00 in0.0 mm 0.00 in0.0 mm 0.00 in0.0 mm
08:30 AM 40.1°F4.5°C 36.5°F2.5°C 87% 2.4 mph SW3.9 kmh SW 4.2 mph6.8 kmh 30.28 in1025.4 mb 0.00 in0.0 mm 0.00 in0.0 mm 0.00 in0.0 mm
08:40 AM 40.1°F4.5°C 36.5°F2.5°C 87% 2.4 mph SW3.9 kmh SW 4.2 mph6.8 kmh 30.27 in1025.1 mb 0.00 in0.0 mm 0.00 in0.0 mm 0.00 in0.0 mm
09:00 AM 40.1°F4.5°C 36.5°F2.5°C 87% 1.8 mph SW2.9 kmh SW 3.4 mph5.5 kmh 30.27 in1025.1 mb 0.00 in0.0 mm 0.00 in0.0 mm 0.00 in0.0 mm
09:10 AM 40.3°F4.6°C 36.7°F2.6°C 87% 1.8 mph WSW2.9 kmh WSW 4.2 mph6.8 kmh 30.27 in1025.1 mb 0.00 in0.0 mm 0.00 in0.0 mm 0.00 in0.0 mm
09:20 AM 40.5°F4.7°C 36.9°F2.7°C 87% 3.1 mph SSW5.0 kmh SSW 4.9 mph7.9 kmh 30.27 in1025.1 mb 0.00 in0.0 mm 0.00 in0.0 mm 0.00 in0.0 mm
09:30 AM 40.8°F4.9°C 37.3°F2.9°C 87% 4.2 mph SSW6.8 kmh SSW 5.9 mph9.5 kmh 30.27 in1025.1 mb 0.00 in0.0 mm 0.00 in0.0 mm 0.00 in0.0 mm
09:40 AM 41.0°F5.0°C 37.4°F3.0°C 87% 3.8 mph SW6.1 kmh SW 5.9 mph9.5 kmh 30.27 in1025.1 mb 0.00 in0.0 mm 0.00 in0.0 mm 0.00 in0.0 mm
09:50 AM 41.2°F5.1°C 37.6°F3.1°C 87% 3.8 mph SW6.1 kmh SW 4.2 mph6.8 kmh 30.26 in1024.7 mb 0.00 in0.0 mm 0.00 in0.0 mm 0.00 in0.0 mm
10:00 AM 41.4°F5.2°C 37.8°F3.2°C 87% 5.1 mph SSW8.2 kmh SSW 6.6 mph10.6 kmh 30.26 in1024.7 mb 0.00 in0.0 mm 0.00 in0.0 mm 0.00 in0.0 mm
10:10 AM 41.5°F5.3°C 38.0°F3.3°C 87% 6.4 mph S10.3 kmh S 6.6 mph10.6 kmh 30.26 in1024.7 mb 0.00 in0.0 mm 0.00 in0.0 mm 0.00 in0.0 mm
10:20 AM 41.9°F5.5°C 38.3°F3.5°C 87% 5.5 mph SSW8.9 kmh SSW 6.6 mph10.6 kmh 30.26 in1024.7 mb 0.00 in0.0 mm 0.00 in0.0 mm 0.00 in0.0 mm
10:30 AM 42.3°F5.7°C 38.4°F3.6°C 86% 6.3 mph SW10.1 kmh SW 5.9 mph9.5 kmh 30.26 in1024.7 mb 0.00 in0.0 mm 0.00 in0.0 mm 0.00 in0.0 mm
10:40 AM 42.8°F6.0°C 38.9°F3.8°C 86% 4.5 mph SSW7.2 kmh SSW 4.9 mph7.9 kmh 30.26 in1024.7 mb 0.00 in0.0 mm 0.00 in0.0 mm 0.00 in0.0 mm
10:50 AM 43.0°F6.1°C 38.8°F3.8°C 85% 6.0 mph SSW9.7 kmh SSW 6.6 mph10.6 kmh 30.25 in1024.4 mb 0.00 in0.0 mm 0.00 in0.0 mm 0.00 in0.0 mm
11:00 AM 43.2°F6.2°C 38.7°F3.7°C 84% 6.2 mph SW10.0 kmh SW 7.6 mph12.2 kmh 30.24 in1024.0 mb 0.00 in0.0 mm 0.00 in0.0 mm 0.00 in0.0 mm
11:10 AM 43.2°F6.2°C 38.7°F3.7°C 84% 5.8 mph ESE9.3 kmh ESE 5.9 mph9.5 kmh 30.24 in1024.0 mb 0.00 in0.0 mm 0.00 in0.0 mm 0.00 in0.0 mm
11:20 AM 43.3°F6.3°C 38.5°F3.6°C 83% 5.7 mph S9.2 kmh S 6.6 mph10.6 kmh 30.23 in1023.7 mb 0.00 in0.0 mm 0.00 in0.0 mm 0.00 in0.0 mm
11:30 AM 43.2°F6.2°C 38.3°F3.5°C 83% 5.3 mph SW8.5 kmh SW 6.6 mph10.6 kmh 30.23 in1023.7 mb 0.00 in0.0 mm 0.00 in0.0 mm 0.00 in0.0 mm
11:40 AM 43.2°F6.2°C 38.0°F3.3°C 82% 4.6 mph SW7.4 kmh SW 5.9 mph9.5 kmh 30.23 in1023.7 mb 0.00 in0.0 mm 0.00 in0.0 mm 0.00 in0.0 mm
11:50 AM 43.3°F6.3°C 38.2°F3.4°C 82% 4.8 mph SSE7.7 kmh SSE 6.6 mph10.6 kmh 30.22 in1023.4 mb 0.00 in0.0 mm 0.00 in0.0 mm 0.00 in0.0 mm
12:00 PM 43.3°F6.3°C 38.2°F3.4°C 82% 5.1 mph SSW8.2 kmh SSW 7.6 mph12.2 kmh 30.22 in1023.4 mb 0.00 in0.0 mm 0.00 in0.0 mm 0.00 in0.0 mm
12:10 PM 43.5°F6.4°C 38.4°F3.6°C 82% 5.4 mph WSW8.7 kmh WSW 6.6 mph10.6 kmh 30.22 in1023.4 mb 0.00 in0.0 mm 0.00 in0.0 mm 0.00 in0.0 mm
12:20 PM 43.7°F6.5°C 38.6°F3.7°C 82% 5.2 mph SW8.4 kmh SW 6.6 mph10.6 kmh 30.22 in1023.4 mb 0.00 in0.0 mm 0.00 in0.0 mm 0.00 in0.0 mm
12:30 PM 44.1°F6.7°C 38.9°F3.8°C 82% 6.2 mph WNW10.0 kmh WNW 8.4 mph13.5 kmh 30.21 in1023.0 mb 0.00 in0.0 mm 0.00 in0.0 mm 0.00 in0.0 mm
12:40 PM 44.4°F6.9°C 39.3°F4.1°C 82% 5.0 mph S8.0 kmh S 7.6 mph12.2 kmh 30.21 in1023.0 mb 0.00 in0.0 mm 0.00 in0.0 mm 0.00 in0.0 mm
12:50 PM 45.1°F7.3°C 38.0°F3.3°C 76% 5.4 mph SW8.7 kmh SW 6.6 mph10.6 kmh 30.21 in1023.0 mb 0.00 in0.0 mm 0.00 in0.0 mm 0.00 in0.0 mm
01:00 PM 45.7°F7.6°C 38.5°F3.6°C 76% 6.5 mph WSW10.5 kmh WSW 8.4 mph13.5 kmh 30.20 in1022.7 mb 0.00 in0.0 mm 0.00 in0.0 mm 0.00 in0.0 mm
01:10 PM 46.2°F7.9°C 38.7°F3.7°C 75% 7.5 mph WSW12.1 kmh WSW 5.9 mph9.5 kmh 30.20 in1022.7 mb 0.00 in0.0 mm 0.00 in0.0 mm 0.00 in0.0 mm
01:20 PM 46.4°F8.0°C 38.6°F3.7°C 74% 5.2 mph SW8.4 kmh SW 6.6 mph10.6 kmh 30.20 in1022.7 mb 0.00 in0.0 mm 0.00 in0.0 mm 0.00 in0.0 mm
01:30 PM 46.2°F7.9°C 37.7°F3.2°C 72% 7.4 mph SW11.9 kmh SW 8.4 mph13.5 kmh 30.19 in1022.4 mb 0.00 in0.0 mm 0.00 in0.0 mm 0.00 in0.0 mm
01:40 PM 46.0°F7.8°C 37.5°F3.1°C 72% 7.1 mph SW11.4 kmh SW 8.4 mph13.5 kmh 30.18 in1022.0 mb 0.00 in0.0 mm 0.00 in0.0 mm 0.00 in0.0 mm
01:50 PM 46.0°F7.8°C 37.5°F3.1°C 72% 5.0 mph SSW8.0 kmh SSW 7.6 mph12.2 kmh 30.18 in1022.0 mb 0.00 in0.0 mm 0.00 in0.0 mm 0.00 in0.0 mm
02:00 PM 45.9°F7.7°C 37.3°F2.9°C 72% 7.1 mph WSW11.4 kmh WSW 10.1 mph16.3 kmh 30.18 in1022.0 mb 0.00 in0.0 mm 0.00 in0.0 mm 0.00 in0.0 mm
02:10 PM 45.7°F7.6°C 37.2°F2.9°C 72% 7.1 mph WSW11.4 kmh WSW 12.5 mph20.1 kmh 30.18 in1022.0 mb 0.00 in0.0 mm 0.00 in0.0 mm 0.00 in0.0 mm
02:20 PM 45.7°F7.6°C 37.2°F2.9°C 72% 5.3 mph SSW8.5 kmh SSW 5.9 mph9.5 kmh 30.18 in1022.0 mb 0.00 in0.0 mm 0.00 in0.0 mm 0.00 in0.0 mm
02:30 PM 45.5°F7.5°C 37.0°F2.8°C 72% 5.6 mph SW9.0 kmh SW 6.6 mph10.6 kmh 30.18 in1022.0 mb 0.00 in0.0 mm 0.00 in0.0 mm 0.00 in0.0 mm
02:40 PM 45.3°F7.4°C 36.8°F2.7°C 72% 2.9 mph SW4.7 kmh SW 3.4 mph5.5 kmh 30.18 in1022.0 mb 0.00 in0.0 mm 0.00 in0.0 mm 0.00 in0.0 mm
02:50 PM 45.1°F7.3°C 36.6°F2.6°C 72% 2.9 mph SSW4.7 kmh SSW 3.4 mph5.5 kmh 30.19 in1022.4 mb 0.00 in0.0 mm 0.00 in0.0 mm 0.00 in0.0 mm
03:00 PM 45.0°F7.2°C 36.8°F2.7°C 73% 2.7 mph SSW4.3 kmh SSW 3.4 mph5.5 kmh 30.18 in1022.0 mb 0.00 in0.0 mm 0.00 in0.0 mm 0.00 in0.0 mm
03:10 PM 44.6°F7.0°C 36.5°F2.5°C 73% 3.6 mph SE5.8 kmh SE 3.4 mph5.5 kmh 30.18 in1022.0 mb 0.00 in0.0 mm 0.00 in0.0 mm 0.00 in0.0 mm
03:20 PM 44.2°F6.8°C 38.5°F3.6°C 80% 3.3 mph SW5.3 kmh SW 4.9 mph7.9 kmh 30.18 in1022.0 mb 0.00 in0.0 mm 0.00 in0.0 mm 0.00 in0.0 mm
03:30 PM 43.7°F6.5°C 37.9°F3.3°C 80% 2.0 mph SW3.2 kmh SW 4.2 mph6.8 kmh 30.18 in1022.0 mb 0.00 in0.0 mm 0.00 in0.0 mm 0.00 in0.0 mm
03:40 PM 43.3°F6.3°C 37.6°F3.1°C 80% 2.3 mph WSW3.7 kmh WSW 3.4 mph5.5 kmh 30.18 in1022.0 mb 0.00 in0.0 mm 0.00 in0.0 mm 0.00 in0.0 mm
03:50 PM 42.8°F6.0°C 37.1°F2.8°C 80% 1.5 mph S2.4 kmh S 2.5 mph4.0 kmh 30.18 in1022.0 mb 0.00 in0.0 mm 0.00 in0.0 mm 0.00 in0.0 mm
04:00 PM 42.4°F5.8°C 37.0°F2.8°C 81% 1.6 mph SSW2.6 kmh SSW 2.5 mph4.0 kmh 30.18 in1022.0 mb 0.00 in0.0 mm 0.00 in0.0 mm 0.00 in0.0 mm
04:10 PM 42.1°F5.6°C 36.7°F2.6°C 81% 1.9 mph SW3.1 kmh SW 3.4 mph5.5 kmh 30.18 in1022.0 mb 0.00 in0.0 mm 0.00 in0.0 mm 0.00 in0.0 mm
04:20 PM 41.7°F5.4°C 36.3°F2.4°C 81% 2.7 mph SSW4.3 kmh SSW 3.4 mph5.5 kmh 30.18 in1022.0 mb 0.00 in0.0 mm 0.00 in0.0 mm 0.00 in0.0 mm
04:30 PM 41.4°F5.2°C 36.0°F2.2°C 81% 1.4 mph SSW2.3 kmh SSW 2.5 mph4.0 kmh 30.18 in1022.0 mb 0.00 in0.0 mm 0.00 in0.0 mm 0.00 in0.0 mm
04:40 PM 40.8°F4.9°C 35.7°F2.1°C 82% 2.3 mph SSW3.7 kmh SSW 3.4 mph5.5 kmh 30.18 in1022.0 mb 0.00 in0.0 mm 0.00 in0.0 mm 0.00 in0.0 mm
04:50 PM 40.6°F4.8°C 35.6°F2.0°C 82% 2.6 mph SW4.2 kmh SW 3.4 mph5.5 kmh 30.18 in1022.0 mb 0.00 in0.0 mm 0.00 in0.0 mm 0.00 in0.0 mm
05:00 PM 40.5°F4.7°C 35.7°F2.1°C 83% 2.9 mph SW4.7 kmh SW 3.4 mph5.5 kmh 30.18 in1022.0 mb 0.00 in0.0 mm 0.00 in0.0 mm 0.00 in0.0 mm
05:10 PM 40.3°F4.6°C 35.5°F1.9°C 83% 2.4 mph S3.9 kmh S 2.5 mph4.0 kmh 30.18 in1022.0 mb 0.00 in0.0 mm 0.00 in0.0 mm 0.00 in0.0 mm
05:20 PM 39.9°F4.4°C 35.2°F1.8°C 83% 2.0 mph SSW3.2 kmh SSW 3.4 mph5.5 kmh 30.18 in1022.0 mb 0.00 in0.0 mm 0.00 in0.0 mm 0.00 in0.0 mm
05:30 PM 39.7°F4.3°C 35.0°F1.7°C 83% 2.7 mph SW4.3 kmh SW 3.4 mph5.5 kmh 30.18 in1022.0 mb 0.00 in0.0 mm 0.00 in0.0 mm 0.00 in0.0 mm
05:40 PM 39.6°F4.2°C 35.1°F1.7°C 84% 3.4 mph SW5.5 kmh SW 4.9 mph7.9 kmh 30.18 in1022.0 mb 0.00 in0.0 mm 0.00 in0.0 mm 0.00 in0.0 mm
05:50 PM 39.4°F4.1°C 34.9°F1.6°C 84% 3.9 mph WSW6.3 kmh WSW 5.9 mph9.5 kmh 30.18 in1022.0 mb 0.00 in0.0 mm 0.00 in0.0 mm 0.00 in0.0 mm
06:00 PM 39.4°F4.1°C 34.9°F1.6°C 84% 3.9 mph SW6.3 kmh SW 4.2 mph6.8 kmh 30.18 in1022.0 mb 0.00 in0.0 mm 0.00 in0.0 mm 0.00 in0.0 mm
06:10 PM 39.4°F4.1°C 35.2°F1.8°C 85% 3.8 mph SSW6.1 kmh SSW 4.9 mph7.9 kmh 30.18 in1022.0 mb 0.00 in0.0 mm 0.00 in0.0 mm 0.00 in0.0 mm
06:20 PM 39.2°F4.0°C 35.1°F1.7°C 85% 3.3 mph SW5.3 kmh SW 4.2 mph6.8 kmh 30.18 in1022.0 mb 0.00 in0.0 mm 0.00 in0.0 mm 0.00 in0.0 mm
06:30 PM 39.2°F4.0°C 35.1°F1.7°C 85% 3.7 mph SW6.0 kmh SW 4.2 mph6.8 kmh 30.18 in1022.0 mb 0.00 in0.0 mm 0.00 in0.0 mm 0.00 in0.0 mm
06:40 PM 38.8°F3.8°C 34.7°F1.5°C 85% 3.9 mph S6.3 kmh S 4.9 mph7.9 kmh 30.17 in1021.7 mb 0.00 in0.0 mm 0.00 in0.0 mm 0.00 in0.0 mm
06:50 PM 38.8°F3.8°C 34.7°F1.5°C 85% 3.8 mph SW6.1 kmh SW 6.6 mph10.6 kmh 30.17 in1021.7 mb 0.00 in0.0 mm 0.00 in0.0 mm 0.00 in0.0 mm
07:00 PM 38.5°F3.6°C 34.4°F1.3°C 85% 3.8 mph SE6.1 kmh SE 4.9 mph7.9 kmh 30.17 in1021.7 mb 0.00 in0.0 mm 0.00 in0.0 mm 0.00 in0.0 mm
07:10 PM 38.5°F3.6°C 34.4°F1.3°C 85% 3.3 mph WNW5.3 kmh WNW 4.2 mph6.8 kmh 30.17 in1021.7 mb 0.00 in0.0 mm 0.00 in0.0 mm 0.00 in0.0 mm
07:20 PM 38.5°F3.6°C 34.7°F1.5°C 86% 4.2 mph SSW6.8 kmh SSW 5.9 mph9.5 kmh 30.17 in1021.7 mb 0.00 in0.0 mm 0.00 in0.0 mm 0.00 in0.0 mm
07:30 PM 38.3°F3.5°C 34.5°F1.4°C 86% 3.2 mph SW5.1 kmh SW 4.2 mph6.8 kmh 30.17 in1021.7 mb 0.00 in0.0 mm 0.00 in0.0 mm 0.00 in0.0 mm
07:40 PM 38.1°F3.4°C 34.3°F1.3°C 86% 3.3 mph WSW5.3 kmh WSW 4.2 mph6.8 kmh 30.17 in1021.7 mb 0.00 in0.0 mm 0.00 in0.0 mm 0.00 in0.0 mm
07:50 PM 37.9°F3.3°C 34.1°F1.2°C 86% 3.2 mph SW5.1 kmh SW 4.2 mph6.8 kmh 30.17 in1021.7 mb 0.00 in0.0 mm 0.00 in0.0 mm 0.00 in0.0 mm
08:00 PM 37.9°F3.3°C 34.1°F1.2°C 86% 4.9 mph S7.9 kmh S 4.9 mph7.9 kmh 30.16 in1021.3 mb 0.00 in0.0 mm 0.00 in0.0 mm 0.00 in0.0 mm
08:10 PM 37.8°F3.2°C 33.9°F1.1°C 86% 3.4 mph S5.5 kmh S 4.2 mph6.8 kmh 30.16 in1021.3 mb 0.00 in0.0 mm 0.00 in0.0 mm 0.00 in0.0 mm
08:20 PM 37.6°F3.1°C 33.8°F1.0°C 86% 3.9 mph SW6.3 kmh SW 5.9 mph9.5 kmh 30.16 in1021.3 mb 0.00 in0.0 mm 0.00 in0.0 mm 0.00 in0.0 mm
08:30 PM 37.6°F3.1°C 33.8°F1.0°C 86% 2.1 mph SSW3.4 kmh SSW 3.4 mph5.5 kmh 30.15 in1021.0 mb 0.00 in0.0 mm 0.00 in0.0 mm 0.00 in0.0 mm
08:40 PM 37.6°F3.1°C 33.8°F1.0°C 86% 2.8 mph SW4.5 kmh SW 4.2 mph6.8 kmh 30.15 in1021.0 mb 0.00 in0.0 mm 0.00 in0.0 mm 0.00 in0.0 mm
08:50 PM 37.6°F3.1°C 33.8°F1.0°C 86% 2.4 mph WSW3.9 kmh WSW 3.4 mph5.5 kmh 30.15 in1021.0 mb 0.00 in0.0 mm 0.00 in0.0 mm 0.00 in0.0 mm
09:00 PM 37.6°F3.1°C 33.8°F1.0°C 86% 2.6 mph SW4.2 kmh SW 3.4 mph5.5 kmh 30.15 in1021.0 mb 0.00 in0.0 mm 0.00 in0.0 mm 0.00 in0.0 mm
09:10 PM 37.9°F3.3°C 34.4°F1.3°C 87% 3.9 mph SSW6.3 kmh SSW 4.9 mph7.9 kmh 30.15 in1021.0 mb 0.00 in0.0 mm 0.00 in0.0 mm 0.00 in0.0 mm
09:20 PM 38.3°F3.5°C 34.8°F1.6°C 87% 5.3 mph SSW8.5 kmh SSW 6.6 mph10.6 kmh 30.15 in1021.0 mb 0.00 in0.0 mm 0.00 in0.0 mm 0.00 in0.0 mm
09:30 PM 38.3°F3.5°C 34.8°F1.6°C 87% 4.4 mph SSW7.1 kmh SSW 4.9 mph7.9 kmh 30.15 in1021.0 mb 0.00 in0.0 mm 0.00 in0.0 mm 0.00 in0.0 mm
09:40 PM 38.3°F3.5°C 34.8°F1.6°C 87% 3.5 mph SW5.6 kmh SW 5.9 mph9.5 kmh 30.14 in1020.7 mb 0.00 in0.0 mm 0.00 in0.0 mm 0.00 in0.0 mm
09:50 PM 38.1°F3.4°C 34.6°F1.4°C 87% 3.0 mph S4.8 kmh S 3.4 mph5.5 kmh 30.14 in1020.7 mb 0.00 in0.0 mm 0.00 in0.0 mm 0.00 in0.0 mm
10:00 PM 37.9°F3.3°C 34.4°F1.3°C 87% 2.9 mph WSW4.7 kmh WSW 3.4 mph5.5 kmh 30.14 in1020.7 mb 0.00 in0.0 mm 0.00 in0.0 mm 0.00 in0.0 mm
10:10 PM 37.8°F3.2°C 34.2°F1.2°C 87% 4.1 mph N6.6 kmh N 3.4 mph5.5 kmh 30.14 in1020.7 mb 0.00 in0.0 mm 0.00 in0.0 mm 0.00 in0.0 mm
10:20 PM 37.6°F3.1°C 34.1°F1.2°C 87% 3.7 mph S6.0 kmh S 4.9 mph7.9 kmh 30.14 in1020.7 mb 0.00 in0.0 mm 0.00 in0.0 mm 0.00 in0.0 mm
10:30 PM 37.4°F3.0°C 33.9°F1.1°C 87% 4.0 mph SW6.4 kmh SW 5.9 mph9.5 kmh 30.14 in1020.7 mb 0.00 in0.0 mm 0.00 in0.0 mm 0.00 in0.0 mm
10:40 PM 37.0°F2.8°C 33.5°F0.8°C 87% 2.9 mph S4.7 kmh S 3.4 mph5.5 kmh 30.14 in1020.7 mb 0.00 in0.0 mm 0.00 in0.0 mm 0.00 in0.0 mm
10:50 PM 36.9°F2.7°C 33.4°F0.8°C 87% 2.8 mph SW4.5 kmh SW 3.4 mph5.5 kmh 30.14 in1020.7 mb 0.00 in0.0 mm 0.00 in0.0 mm 0.00 in0.0 mm
11:00 PM 36.5°F2.5°C 33.0°F0.6°C 87% 2.9 mph SW4.7 kmh SW 3.4 mph5.5 kmh 30.14 in1020.7 mb 0.00 in0.0 mm 0.00 in0.0 mm 0.00 in0.0 mm
11:10 PM 36.3°F2.4°C 32.8°F0.4°C 87% 2.7 mph W4.3 kmh W 4.2 mph6.8 kmh 30.13 in1020.3 mb 0.00 in0.0 mm 0.00 in0.0 mm 0.00 in0.0 mm
11:20 PM 36.1°F2.3°C 32.6°F0.3°C 87% 3.0 mph SSW4.8 kmh SSW 4.2 mph6.8 kmh 30.14 in1020.7 mb 0.00 in0.0 mm 0.00 in0.0 mm 0.00 in0.0 mm
11:30 PM 36.1°F2.3°C 32.6°F0.3°C 87% 3.5 mph SSW5.6 kmh SSW 4.2 mph6.8 kmh 30.13 in1020.3 mb 0.00 in0.0 mm 0.00 in0.0 mm 0.00 in0.0 mm
11:40 PM 36.3°F2.4°C 32.8°F0.4°C 87% 3.1 mph SW5.0 kmh SW 3.4 mph5.5 kmh 30.13 in1020.3 mb 0.00 in0.0 mm 0.00 in0.0 mm 0.00 in0.0 mm
11:50 PM 36.7°F2.6°C 33.2°F0.7°C 87% 2.0 mph SW3.2 kmh SW 3.4 mph5.5 kmh 30.12 in1020.0 mb 0.00 in0.0 mm 0.00 in0.0 mm 0.00 in0.0 mm